Terminal Aerodrome Forecast
Issued by NWS

Current Version | Previous Version | Graphics & Text | Print | Product List | Glossary On
Versions: 1 2 3 4 5 6 7 8 9 10 11 12 13 14 15 16 17 18 19 20
000
FTUS41 KRLX 210200 AAA
TAFCKB
TAF AMD
KCKB 210255Z 2103/2124 00000KT P6SM OVC025
     FM210600 00000KT P6SM BKN015
     FM211800 00000KT P6SM BKN025
     FM212200 00000KT P6SM SCT025=

USA.gov is the U.S. government's official web portal to all federal, state and local government web resources and services.